Weather at Chennai International Airport

Public forecast

Using degrees Celsius for public forecast. Weather courtesy of forecast.io.

Current aviation weather report (METAR) for Chennai International Airport

Retrieved 2021/03/06 16:30 UTC (4 minutes ago):

VOMM 061630Z 00000KT 6000 FEW020 26/22 Q1013 NOSIG

Aviation forecast (TAF) for Chennai International Airport

Retrieved 2021/03/06 12:00 UTC (5 hours ago):

TAF VOMM 061100Z 0612/0718 14005KT 6000 FEW020 BECMG 0618/0619 VRB02KT 5000 HZ BECMG 0621/0622 3000 BR BECMG 0700/0701 1500 BR BECMG 0703/0704 3000 BR BECMG 0706/0707 14005KT 5000 HZ BECMG 0709/0710 6000